»·PEaware :: N12559 KBUR-KLAS

N12559 :: KBUR-KLAS

FLIGHT INFORMATION

Flight Status: Arrived
Operator: Privately registered:
United States
More flights under this callsign
Pilot: Joshua S. (14624)
Aircraft: CESSNA 172 SKYHAWK
(C172)
More flights by this aircraft type
Origin: KBUR Bob Hope-Burbank
United States
Destination: KLAS McCarran Intl
United States
More flights between these airports :: More routes between these airports
Route: +VNY3 DAG CRESO4
File this flight plan on PilotEdge
Remarks:
Altitude:
(Current/Filed)
11,000ft
Speed:
(Current/Filed)
110kts
Departed: 02-Dec-17 12:10 PM
Arrived: 02-Dec-17 01:24 PM
Distance/Time
Traveled:
193nm/1:13
Distance/Time
To Go:
Arrived

Flight Plot

Page will automatically refresh every two minutes.

Flight plan parsing failed; only flown route is shown


Map Options




Map Legend


Flown Route
Filed Route
Departure Airport
Arrival Airport
Navaid (VOR, NDB)
Fix

Horizontal Profiles

Position Reports

Time Latitude Longitude Heading Altitude Ground
Speed
02-Dec-17 12:02 34.200499 -118.366003 182 780ft 0kts
02-Dec-17 12:03 34.200499 -118.366003 182 780ft 0kts
02-Dec-17 12:04 34.200499 -118.366003 182 780ft 0kts
02-Dec-17 12:05 34.200499 -118.366003 182 780ft 0kts
02-Dec-17 12:06 34.200499 -118.366003 182 780ft 0kts
02-Dec-17 12:07 34.200499 -118.366003 182 780ft 0kts
02-Dec-17 12:08 34.200499 -118.366003 182 780ft 0kts
02-Dec-17 12:09 34.200499 -118.366003 182 780ft 0kts
02-Dec-17 12:10 34.200499 -118.366003 182 780ft 0kts
02-Dec-17 12:11 34.199365 -118.365974 181 780ft 14kts
02-Dec-17 12:12 34.198908 -118.369030 216 780ft 0kts
02-Dec-17 12:13 34.198773 -118.369101 189 780ft 0kts
02-Dec-17 12:14 34.198402 -118.369042 157 780ft 16kts
02-Dec-17 12:15 34.193793 -118.350693 152 1481ft 67kts
02-Dec-17 12:16 34.179059 -118.360613 226 2418ft 66kts
02-Dec-17 12:17 34.166118 -118.376299 225 3306ft 65kts
02-Dec-17 12:18 34.154489 -118.391161 247 4120ft 61kts
02-Dec-17 12:19 34.167351 -118.404704 350 4770ft 86kts
02-Dec-17 12:20 34.190549 -118.409365 350 5597ft 85kts
02-Dec-17 12:21 34.213755 -118.414020 350 6390ft 84kts
02-Dec-17 12:22 34.236009 -118.418754 346 7178ft 78kts
02-Dec-17 12:23 34.255681 -118.424510 346 7946ft 65kts
02-Dec-17 12:24 34.272466 -118.429421 344 8469ft 71kts
02-Dec-17 12:25 34.290462 -118.434506 347 9099ft 63kts
02-Dec-17 12:26 34.307245 -118.439276 347 9615ft 61kts
02-Dec-17 12:27 34.324358 -118.444124 347 10040ft 71kts
02-Dec-17 12:28 34.344481 -118.449754 347 10555ft 77kts
02-Dec-17 12:29 34.366193 -118.455860 346 11066ft 83kts
02-Dec-17 12:30 34.389497 -118.460584 19 11430ft 102kts
02-Dec-17 12:31 34.411295 -118.431156 51 11047ft 111kts
02-Dec-17 12:32 34.427394 -118.402570 58 11051ft 97kts
02-Dec-17 12:33 34.439563 -118.373848 58 11001ft 96kts
02-Dec-17 12:34 34.454531 -118.347409 54 10999ft 94kts
02-Dec-17 12:35 34.469315 -118.323348 53 11000ft 95kts
02-Dec-17 12:36 34.485616 -118.296857 48 11008ft 110kts
02-Dec-17 12:37 34.505308 -118.264109 50 10997ft 126kts
02-Dec-17 12:38 34.527817 -118.229754 52 10889ft 128kts
02-Dec-17 12:39 34.549390 -118.195424 53 10890ft 128kts
02-Dec-17 12:40 34.570896 -118.161026 53 10890ft 128kts
02-Dec-17 12:41 34.592427 -118.126540 53 10890ft 128kts
02-Dec-17 12:42 34.613899 -118.092114 53 10890ft 128kts
02-Dec-17 12:43 34.632465 -118.056067 82 10890ft 127kts
02-Dec-17 12:44 34.634492 -118.013616 75 10882ft 127kts
02-Dec-17 12:45 34.643726 -117.951669 82 10890ft 128kts
02-Dec-17 12:46 34.653155 -117.866093 82 10890ft 128kts
02-Dec-17 12:47 34.662374 -117.781071 82 10890ft 128kts
02-Dec-17 12:48 34.681033 -117.698166 72 10890ft 128kts
02-Dec-17 12:49 34.702198 -117.615686 72 10890ft 128kts
02-Dec-17 12:50 34.738500 -117.473602 72 10890ft 128kts
02-Dec-17 12:51 34.764810 -117.370140 72 10890ft 128kts
02-Dec-17 12:52 34.816001 -117.167656 73 10890ft 128kts
02-Dec-17 12:53 34.828695 -117.117197 73 10890ft 128kts
02-Dec-17 12:54 34.839079 -117.075848 73 10890ft 128kts
02-Dec-17 12:55 34.865992 -116.968377 73 10890ft 128kts
02-Dec-17 12:56 34.907232 -116.802813 73 10890ft 128kts
02-Dec-17 12:57 34.948460 -116.636220 73 10890ft 128kts
02-Dec-17 12:58 35.007060 -116.478186 61 10396ft 136kts
02-Dec-17 12:59 35.077412 -116.319469 62 10001ft 129kts
02-Dec-17 13:00 35.145288 -116.165717 62 10001ft 128kts
02-Dec-17 13:01 35.213099 -116.011412 62 10001ft 128kts
02-Dec-17 13:02 35.280465 -115.857420 62 10001ft 128kts
02-Dec-17 13:03 35.363532 -115.716826 47 10002ft 128kts
02-Dec-17 13:04 35.460245 -115.587670 47 10001ft 128kts
02-Dec-17 13:05 35.503954 -115.529126 47 10001ft 128kts
02-Dec-17 13:06 35.528124 -115.496689 47 10001ft 128kts
02-Dec-17 13:07 35.553973 -115.462009 47 9276ft 150kts
02-Dec-17 13:08 35.582404 -115.423845 47 8077ft 152kts
02-Dec-17 13:09 35.610541 -115.386033 47 7037ft 145kts
02-Dec-17 13:10 35.636052 -115.351716 47 6916ft 130kts
02-Dec-17 13:11 35.660395 -115.318929 48 6917ft 129kts
02-Dec-17 13:12 35.684627 -115.286264 48 6917ft 129kts
02-Dec-17 13:13 35.708820 -115.253620 48 6917ft 129kts
02-Dec-17 13:14 35.733068 -115.220862 48 6915ft 126kts
02-Dec-17 13:15 35.755629 -115.190356 48 6917ft 118kts
02-Dec-17 13:16 35.780058 -115.164760 13 6916ft 118kts
02-Dec-17 13:17 35.812108 -115.156195 12 6917ft 118kts
02-Dec-17 13:18 35.844196 -115.147643 12 6917ft 118kts
02-Dec-17 13:19 35.876393 -115.139055 12 6917ft 118kts
02-Dec-17 13:20 35.908403 -115.130512 12 6917ft 118kts
02-Dec-17 13:21 35.940552 -115.121924 12 6917ft 118kts
02-Dec-17 13:22 35.972498 -115.113354 13 6911ft 111kts
02-Dec-17 13:23 36.000792 -115.116241 322 6591ft 111kts
02-Dec-17 13:24 36.019744 -115.145398 304 6116ft 90kts
02-Dec-17 13:25 36.040067 -115.173386 327 4719ft 118kts
02-Dec-17 13:26 36.069742 -115.181898 20 3414ft 110kts
02-Dec-17 13:27 36.094014 -115.168198 28 2941ft 75kts
02-Dec-17 13:28 36.098691 -115.156887 208 2325ft 84kts
02-Dec-17 13:29 36.085386 -115.164720 209 2144ft 22kts
02-Dec-17 13:30 36.083528 -115.166962 230 2144ft 3kts
02-Dec-17 13:31 36.082872 -115.167546 210 2144ft 6kts
02-Dec-17 13:32 36.083995 -115.167786 24 2144ft 10kts
02-Dec-17 13:33 36.086340 -115.166482 25 2144ft 12kts
02-Dec-17 13:34 36.086945 -115.166864 303 2144ft 0kts
02-Dec-17 13:35 36.086945 -115.166864 303 2144ft 0kts

Navigation Log

Ident Type
Flight plan parsing failed, navigation log unavailable